createdAt,value
2018-12-13T00:00:03.459Z,9.30
2018-12-13T00:02:33.349Z,10.83
2018-12-13T00:05:04.389Z,9.10
2018-12-13T00:07:33.240Z,11.50
2018-12-13T00:10:02.257Z,9.53
2018-12-13T00:12:31.142Z,8.83
2018-12-13T00:15:00.018Z,11.80
2018-12-13T00:17:28.918Z,13.13
2018-12-13T00:19:57.805Z,12.37
2018-12-13T00:22:26.692Z,11.57
2018-12-13T00:24:55.574Z,10.83
2018-12-13T00:27:24.465Z,9.73
2018-12-13T00:29:53.466Z,12.07
2018-12-13T00:32:22.357Z,9.90
2018-12-13T00:34:51.241Z,15.30
2018-12-13T00:37:20.139Z,11.27
2018-12-13T00:39:49.012Z,11.20
2018-12-13T00:42:17.912Z,12.53
2018-12-13T00:44:46.798Z,12.00
2018-12-13T00:47:15.708Z,12.47
2018-12-13T00:49:44.597Z,11.40
2018-12-13T00:52:13.476Z,14.17
2018-12-13T00:54:42.384Z,12.97
2018-12-13T00:57:11.244Z,14.13
2018-12-13T00:59:40.145Z,12.13
2018-12-13T01:02:09.158Z,12.60
2018-12-13T01:04:38.020Z,12.77
2018-12-13T01:07:07.033Z,10.60
2018-12-13T01:09:35.911Z,11.50
2018-12-13T01:12:04.733Z,11.47
2018-12-13T01:14:33.580Z,12.87
2018-12-13T01:17:02.665Z,13.63
2018-12-13T01:19:31.578Z,12.93
2018-12-13T01:22:00.452Z,12.23
2018-12-13T01:24:29.360Z,12.83
2018-12-13T01:26:58.553Z,15.13
2018-12-13T01:29:27.456Z,14.60
2018-12-13T01:31:56.334Z,14.10
2018-12-13T01:34:25.232Z,13.43
2018-12-13T01:36:54.108Z,12.63
2018-12-13T01:39:23.213Z,12.23
2018-12-13T01:41:52.209Z,12.53
2018-12-13T01:44:21.212Z,12.90
2018-12-13T01:46:50.180Z,11.77
2018-12-13T01:49:19.072Z,11.80
2018-12-13T01:51:47.927Z,11.43
2018-12-13T01:54:16.993Z,14.57
2018-12-13T01:56:45.833Z,12.20
2018-12-13T01:59:14.869Z,12.37
2018-12-13T02:01:44.824Z,11.33
2018-12-13T02:04:13.637Z,10.83
2018-12-13T02:06:42.541Z,13.73
2018-12-13T02:09:11.424Z,9.67
2018-12-13T02:11:41.353Z,11.97
2018-12-13T02:14:10.236Z,10.53
2018-12-13T02:16:39.237Z,12.10
2018-12-13T02:19:08.136Z,12.80
2018-12-13T02:21:37.073Z,14.07
2018-12-13T02:24:06.008Z,13.37
2018-12-13T02:26:35.827Z,12.83
2018-12-13T02:29:04.961Z,16.47
2018-12-13T02:31:34.000Z,13.63
2018-12-13T02:34:03.117Z,13.27
2018-12-13T02:36:31.995Z,14.87
2018-12-13T02:39:00.904Z,14.70
2018-12-13T02:41:29.883Z,14.10
2018-12-13T02:43:58.748Z,12.83
2018-12-13T02:46:27.761Z,12.07
2018-12-13T02:49:07.409Z,16.30
2018-12-13T02:51:36.309Z,13.23
2018-12-13T02:54:05.284Z,14.73
2018-12-13T02:56:35.191Z,14.67
2018-12-13T02:59:03.706Z,12.13
2018-12-13T03:01:32.578Z,14.57
2018-12-13T03:04:01.480Z,12.63
2018-12-13T03:06:30.443Z,13.20
2018-12-13T03:08:59.329Z,14.47
2018-12-13T03:11:28.232Z,11.63
2018-12-13T03:13:57.119Z,12.00
2018-12-13T03:16:25.962Z,11.93
2018-12-13T03:18:54.909Z,12.00
2018-12-13T03:21:23.801Z,12.80
2018-12-13T03:23:52.678Z,11.40
2018-12-13T03:26:21.579Z,10.33
2018-12-13T03:28:50.448Z,9.87
2018-12-13T03:31:19.415Z,9.87
2018-12-13T03:33:48.234Z,8.37
2018-12-13T03:36:17.149Z,8.90
2018-12-13T03:38:46.167Z,9.47
2018-12-13T03:41:15.260Z,8.67
2018-12-13T03:43:44.126Z,9.20
2018-12-13T03:46:13.237Z,8.53
2018-12-13T03:48:42.201Z,9.17
2018-12-13T03:51:11.011Z,9.63
2018-12-13T03:53:39.874Z,9.40
2018-12-13T03:56:08.987Z,10.33
2018-12-13T03:58:37.853Z,8.43
2018-12-13T04:01:06.688Z,9.53
2018-12-13T04:03:35.532Z,9.50
2018-12-13T04:06:04.498Z,10.20
2018-12-13T04:08:33.439Z,9.60
2018-12-13T04:11:03.233Z,10.47
2018-12-13T04:13:32.155Z,10.00
2018-12-13T04:16:01.627Z,8.30
2018-12-13T04:18:30.577Z,7.43
2018-12-13T04:20:59.406Z,9.63
2018-12-13T04:23:28.311Z,8.43
2018-12-13T04:25:57.279Z,8.63
2018-12-13T04:28:26.187Z,8.27
2018-12-13T04:30:55.066Z,9.77
2018-12-13T04:33:23.967Z,9.27
2018-12-13T04:35:52.883Z,9.07
2018-12-13T04:38:21.745Z,10.00
2018-12-13T04:40:50.616Z,10.30
2018-12-13T04:43:19.522Z,7.07
2018-12-13T04:45:48.438Z,8.33
2018-12-13T04:48:17.305Z,9.87
2018-12-13T04:50:46.185Z,9.10
2018-12-13T04:53:15.076Z,8.27
2018-12-13T04:55:43.963Z,6.30
2018-12-13T04:58:12.860Z,6.87
2018-12-13T05:00:41.757Z,6.33
2018-12-13T05:03:11.015Z,7.50
2018-12-13T05:05:39.934Z,6.57
2018-12-13T05:08:08.936Z,6.67
2018-12-13T05:10:49.306Z,6.00
2018-12-13T05:13:18.607Z,7.00
2018-12-13T05:15:47.909Z,5.90
2018-12-13T05:18:16.896Z,6.70
2018-12-13T05:20:45.735Z,6.03
2018-12-13T05:23:20.343Z,5.80
2018-12-13T05:25:51.386Z,7.17
2018-12-13T05:28:20.256Z,8.83
2018-12-13T05:30:49.133Z,5.80
2018-12-13T05:33:18.008Z,5.57
2018-12-13T05:35:46.931Z,6.67
2018-12-13T05:38:15.761Z,6.63
2018-12-13T05:40:44.636Z,6.47
2018-12-13T05:43:13.468Z,6.00
2018-12-13T05:45:42.357Z,5.83
2018-12-13T05:48:11.241Z,6.23
2018-12-13T05:50:40.145Z,6.57
2018-12-13T05:53:09.035Z,7.10
2018-12-13T05:55:37.925Z,6.63
2018-12-13T05:58:06.760Z,5.50
2018-12-13T06:00:35.592Z,6.50
2018-12-13T06:03:04.592Z,7.20
2018-12-13T06:05:33.452Z,5.87
2018-12-13T06:08:02.389Z,6.23
2018-12-13T06:10:31.248Z,6.70
2018-12-13T06:13:00.056Z,7.60
2018-12-13T06:15:28.946Z,7.37
2018-12-13T06:17:57.824Z,8.23
2018-12-13T06:20:26.712Z,7.60
2018-12-13T06:22:55.601Z,7.33
2018-12-13T06:25:24.529Z,8.13
2018-12-13T06:27:53.404Z,7.43
2018-12-13T06:30:23.194Z,6.00
2018-12-13T06:32:52.084Z,6.63
2018-12-13T06:35:20.980Z,7.93
2018-12-13T06:37:49.875Z,7.23
2018-12-13T06:40:18.756Z,5.73
2018-12-13T06:42:47.776Z,5.80
2018-12-13T06:45:17.301Z,7.50
2018-12-13T06:47:46.153Z,6.83
2018-12-13T06:50:15.170Z,6.90
2018-12-13T06:52:44.044Z,6.97
2018-12-13T06:55:13.023Z,8.80
2018-12-13T06:57:42.032Z,6.27
2018-12-13T07:00:11.353Z,10.13
2018-12-13T07:02:40.197Z,6.80
2018-12-13T07:05:09.236Z,7.00
2018-12-13T07:07:37.585Z,8.03
2018-12-13T07:10:06.640Z,7.70
2018-12-13T07:12:35.460Z,7.00
2018-12-13T07:15:05.673Z,12.07
2018-12-13T07:17:34.690Z,7.27
2018-12-13T07:20:04.709Z,7.20
2018-12-13T07:22:33.693Z,6.47
2018-12-13T07:25:02.622Z,7.40
2018-12-13T07:27:32.281Z,7.00
2018-12-13T07:30:01.193Z,7.63
2018-12-13T07:32:30.080Z,6.23
2018-12-13T07:35:01.386Z,7.17
2018-12-13T07:37:29.853Z,7.70
2018-12-13T07:39:58.707Z,7.70
2018-12-13T07:42:27.601Z,6.87
2018-12-13T07:44:57.500Z,6.60
2018-12-13T07:47:26.396Z,6.10
2018-12-13T07:49:55.286Z,6.47
2018-12-13T07:52:24.805Z,7.07
2018-12-13T07:54:53.666Z,5.37
2018-12-13T07:57:22.553Z,7.13
2018-12-13T07:59:51.448Z,6.63
2018-12-13T08:02:20.353Z,5.93
2018-12-13T08:04:50.357Z,5.53
2018-12-13T08:07:19.240Z,6.20
2018-12-13T08:09:48.140Z,6.60
2018-12-13T08:12:16.962Z,6.57
2018-12-13T08:14:45.961Z,7.67
2018-12-13T08:17:15.001Z,7.03
2018-12-13T08:19:45.850Z,6.23
2018-12-13T08:22:14.740Z,7.03
2018-12-13T08:24:43.628Z,8.37
2018-12-13T08:27:14.477Z,6.43
2018-12-13T08:29:43.376Z,7.30
2018-12-13T08:32:12.240Z,7.07
2018-12-13T08:34:41.125Z,5.90
2018-12-13T08:37:10.041Z,8.20
2018-12-13T08:39:38.914Z,5.47
2018-12-13T08:42:07.918Z,6.77
2018-12-13T08:44:37.391Z,5.83
2018-12-13T08:47:06.850Z,6.63
2018-12-13T08:49:35.692Z,9.10
2018-12-13T08:52:04.709Z,8.07
2018-12-13T08:54:33.584Z,7.27
2018-12-13T08:57:02.486Z,7.10
2018-12-13T08:59:31.357Z,9.00
2018-12-13T09:02:00.477Z,8.60
2018-12-13T09:04:29.339Z,9.10
2018-12-13T09:06:58.246Z,7.23
2018-12-13T09:09:27.300Z,7.03
2018-12-13T09:11:56.164Z,6.00
2018-12-13T09:14:24.232Z,7.37
2018-12-13T09:16:53.235Z,7.73
2018-12-13T09:19:22.058Z,10.73
2018-12-13T09:21:50.901Z,9.07
2018-12-13T09:24:19.747Z,7.17
2018-12-13T09:26:48.625Z,6.73
2018-12-13T09:29:17.526Z,7.93
2018-12-13T09:31:47.481Z,7.40
2018-12-13T09:34:16.390Z,7.13
2018-12-13T09:36:45.254Z,7.07
2018-12-13T09:39:14.140Z,5.87
2018-12-13T09:41:43.076Z,5.93
2018-12-13T09:44:16.861Z,6.03
2018-12-13T09:46:46.910Z,6.60
2018-12-13T09:49:15.817Z,6.07
2018-12-13T09:51:44.781Z,6.00
2018-12-13T09:54:13.630Z,5.90
2018-12-13T09:56:42.477Z,6.53
2018-12-13T09:59:11.375Z,6.47
2018-12-13T10:01:40.250Z,5.50
2018-12-13T10:04:09.130Z,5.97
2018-12-13T10:06:38.069Z,5.03
2018-12-13T10:09:08.256Z,7.67
2018-12-13T10:11:37.744Z,5.37
2018-12-13T10:14:06.693Z,4.37
2018-12-13T10:16:35.525Z,7.30
2018-12-13T10:19:04.559Z,6.90
2018-12-13T10:21:33.565Z,5.70
2018-12-13T10:24:02.453Z,6.60
2018-12-13T10:26:31.412Z,7.97
2018-12-13T10:29:00.345Z,8.60
2018-12-13T10:31:29.226Z,5.60
2018-12-13T10:33:58.832Z,7.07
2018-12-13T10:36:27.832Z,5.93
2018-12-13T10:38:56.654Z,7.23
2018-12-13T10:41:25.503Z,6.83
2018-12-13T10:43:54.381Z,8.30
2018-12-13T10:46:23.273Z,5.53
2018-12-13T10:48:52.205Z,5.63
2018-12-13T10:51:21.166Z,5.97
2018-12-13T10:53:50.018Z,7.57
2018-12-13T10:56:18.856Z,7.17
2018-12-13T10:58:47.790Z,6.20
2018-12-13T11:01:22.097Z,6.00
2018-12-13T11:03:50.957Z,5.70
2018-12-13T11:06:19.802Z,5.70
2018-12-13T11:08:48.680Z,6.60
2018-12-13T11:11:17.496Z,5.90
2018-12-13T11:13:46.393Z,6.20
2018-12-13T11:16:15.265Z,6.30
2018-12-13T11:18:44.134Z,6.87
2018-12-13T11:21:17.523Z,6.47
2018-12-13T11:23:44.984Z,6.47
2018-12-13T11:26:14.079Z,8.57
2018-12-13T11:29:52.059Z,6.70
2018-12-13T11:32:20.954Z,6.90
2018-12-13T11:34:49.818Z,6.70
2018-12-13T11:37:18.682Z,7.03
2018-12-13T11:39:47.554Z,6.63
2018-12-13T11:42:16.426Z,8.03
2018-12-13T11:44:45.307Z,7.33
2018-12-13T11:47:14.173Z,8.13
2018-12-13T11:49:42.998Z,7.20
2018-12-13T11:52:11.841Z,9.03
2018-12-13T11:54:43.601Z,6.77
2018-12-13T11:57:12.718Z,7.33
2018-12-13T11:59:41.641Z,8.17
2018-12-13T12:02:10.507Z,8.07
2018-12-13T12:04:39.350Z,7.30
2018-12-13T12:07:08.194Z,7.33
2018-12-13T12:09:37.039Z,6.60
2018-12-13T12:12:05.981Z,7.20
2018-12-13T12:14:34.825Z,7.10
2018-12-13T12:17:03.769Z,9.10
2018-12-13T12:19:32.623Z,6.90
2018-12-13T12:22:01.449Z,7.77
2018-12-13T12:24:30.354Z,7.23
2018-12-13T12:26:59.189Z,8.57
2018-12-13T12:29:28.046Z,12.57
2018-12-13T12:31:56.883Z,10.20
2018-12-13T12:34:25.729Z,6.53
2018-12-13T12:36:54.644Z,7.50
2018-12-13T12:39:23.485Z,7.27
2018-12-13T12:41:52.330Z,6.63
2018-12-13T12:44:21.193Z,6.70
2018-12-13T12:46:50.078Z,6.47
2018-12-13T12:49:18.914Z,6.00
2018-12-13T12:51:48.054Z,5.53
2018-12-13T12:54:16.954Z,5.67
2018-12-13T12:56:45.845Z,5.77
2018-12-13T12:59:14.727Z,5.90
2018-12-13T13:01:43.599Z,7.87
2018-12-13T13:04:12.449Z,7.50
2018-12-13T13:06:41.373Z,7.50
2018-12-13T13:09:10.261Z,7.40
2018-12-13T13:11:39.242Z,7.10
2018-12-13T13:14:08.490Z,7.47
2018-12-13T13:16:37.379Z,6.50
2018-12-13T13:19:06.225Z,7.50
2018-12-13T13:21:35.093Z,8.77
2018-12-13T13:24:04.280Z,6.77
2018-12-13T13:26:33.183Z,5.77
2018-12-13T13:29:02.098Z,5.83
2018-12-13T13:31:31.184Z,6.97
2018-12-13T13:34:00.094Z,5.83
2018-12-13T13:36:29.118Z,5.20
2018-12-13T13:38:58.090Z,6.43
2018-12-13T13:41:27.040Z,5.70
2018-12-13T13:43:55.870Z,5.10
2018-12-13T13:46:25.806Z,6.47
2018-12-13T13:48:54.649Z,5.47
2018-12-13T13:51:24.548Z,5.87
2018-12-13T13:53:53.368Z,6.57
2018-12-13T13:56:22.177Z,6.37
2018-12-13T13:58:51.023Z,6.60
2018-12-13T14:01:19.965Z,5.30
2018-12-13T14:03:48.980Z,4.90
2018-12-13T14:06:17.965Z,4.97
2018-12-13T14:08:47.918Z,5.30
2018-12-13T14:11:17.542Z,7.07
2018-12-13T14:13:46.480Z,6.80
2018-12-13T14:16:15.301Z,3.60
2018-12-13T14:18:44.149Z,4.27
2018-12-13T14:21:13.103Z,5.47
2018-12-13T14:23:41.943Z,5.43
2018-12-13T14:26:10.765Z,4.47
2018-12-13T14:28:39.713Z,4.90
2018-12-13T14:31:08.820Z,5.27
2018-12-13T14:33:37.726Z,5.37
2018-12-13T14:36:06.561Z,5.13
2018-12-13T14:38:35.394Z,4.33
2018-12-13T14:41:07.329Z,4.93
2018-12-13T14:43:53.046Z,6.03
2018-12-13T14:46:21.992Z,5.40
2018-12-13T14:48:50.914Z,4.83
2018-12-13T14:51:19.825Z,4.70
2018-12-13T14:53:48.681Z,4.20
2018-12-13T14:56:17.570Z,4.77
2018-12-13T14:58:46.780Z,5.37
2018-12-13T15:01:15.630Z,3.67
2018-12-13T15:03:44.564Z,4.40
2018-12-13T15:06:13.428Z,5.67
2018-12-13T15:08:42.483Z,3.00
2018-12-13T15:11:11.409Z,3.53
2018-12-13T15:13:40.228Z,3.80
2018-12-13T15:16:09.192Z,4.57
2018-12-13T15:18:38.117Z,3.23
2018-12-13T15:21:08.050Z,4.57
2018-12-13T15:23:36.881Z,4.67
2018-12-13T15:26:05.754Z,3.30
2018-12-13T15:28:34.578Z,3.93
2018-12-13T15:31:04.198Z,3.00
2018-12-13T15:33:33.026Z,3.33
2018-12-13T15:36:02.405Z,5.60
2018-12-13T15:38:31.257Z,4.70
2018-12-13T15:41:00.097Z,5.30
2018-12-13T15:43:28.938Z,3.63
2018-12-13T15:45:57.917Z,5.03
2018-12-13T15:48:26.821Z,4.50
2018-12-13T15:50:56.209Z,4.67
2018-12-13T15:53:25.383Z,4.10
2018-12-13T15:55:54.245Z,3.77
2018-12-13T15:58:23.142Z,5.70
2018-12-13T16:00:52.092Z,4.93
2018-12-13T16:03:20.938Z,4.70
2018-12-13T16:05:49.799Z,4.73
2018-12-13T16:08:18.970Z,5.83
2018-12-13T16:10:47.813Z,6.80
2018-12-13T16:13:16.645Z,4.23
2018-12-13T16:15:45.542Z,5.23
2018-12-13T16:18:14.410Z,6.77
2018-12-13T16:20:43.265Z,4.60
2018-12-13T16:23:13.191Z,5.57
2018-12-13T16:25:42.089Z,6.77
2018-12-13T16:28:11.035Z,5.40
2018-12-13T16:30:39.913Z,4.83
2018-12-13T16:33:08.853Z,6.13
2018-12-13T16:35:38.576Z,7.30
2018-12-13T16:38:08.173Z,7.30
2018-12-13T16:40:37.001Z,5.93
2018-12-13T16:43:05.950Z,6.27
2018-12-13T16:45:34.928Z,6.73
2018-12-13T16:48:03.845Z,8.03
2018-12-13T16:50:32.806Z,6.03
2018-12-13T16:53:01.666Z,9.03
2018-12-13T16:55:30.780Z,7.37
2018-12-13T16:57:59.638Z,10.23
2018-12-13T17:00:28.817Z,7.67
2018-12-13T17:02:57.674Z,7.20
2018-12-13T17:05:27.429Z,9.90
2018-12-13T17:07:57.160Z,9.60
2018-12-13T17:10:26.054Z,9.00
2018-12-13T17:12:55.008Z,9.80
2018-12-13T17:15:23.844Z,6.83
2018-12-13T17:17:52.845Z,7.13
2018-12-13T17:20:21.664Z,8.37
2018-12-13T17:22:50.526Z,6.53
2018-12-13T17:25:19.429Z,8.23
2018-12-13T17:27:48.309Z,7.80
2018-12-13T17:30:17.168Z,8.23
2018-12-13T17:32:45.994Z,9.90
2018-12-13T17:35:14.851Z,6.93
2018-12-13T17:37:43.668Z,7.70
2018-12-13T17:40:12.502Z,8.10
2018-12-13T17:42:41.341Z,7.40
2018-12-13T17:45:10.266Z,7.33
2018-12-13T17:47:39.180Z,7.17
2018-12-13T17:50:09.217Z,7.43
2018-12-13T17:52:38.029Z,9.23
2018-12-13T17:55:07.185Z,9.70
2018-12-13T17:57:36.110Z,10.43
2018-12-13T18:00:06.317Z,6.97
2018-12-13T18:02:35.180Z,9.80
2018-12-13T18:05:04.119Z,12.73
2018-12-13T18:07:33.065Z,8.37
2018-12-13T18:10:01.890Z,8.73
2018-12-13T18:12:30.760Z,7.23
2018-12-13T18:14:59.762Z,8.80
2018-12-13T18:17:28.675Z,9.83
2018-12-13T18:19:57.661Z,8.77
2018-12-13T18:22:26.736Z,8.60
2018-12-13T18:24:55.941Z,10.20
2018-12-13T18:27:24.841Z,10.17
2018-12-13T18:29:53.721Z,9.77
2018-12-13T18:32:22.561Z,10.53
2018-12-13T18:34:51.409Z,10.90
2018-12-13T18:37:20.293Z,16.33
2018-12-13T18:39:49.118Z,12.80
2018-12-13T18:42:18.073Z,17.83
2018-12-13T18:44:46.975Z,13.63
2018-12-13T18:47:15.772Z,12.57
2018-12-13T18:49:44.667Z,15.20
2018-12-13T18:52:14.340Z,11.97
2018-12-13T18:54:43.244Z,10.97
2018-12-13T18:57:12.065Z,13.10
2018-12-13T18:59:40.944Z,10.93
2018-12-13T19:02:09.810Z,12.53
2018-12-13T19:04:38.669Z,12.53
2018-12-13T19:07:08.533Z,13.17
2018-12-13T19:09:37.410Z,12.83
2018-12-13T19:12:06.290Z,12.73
2018-12-13T19:14:35.315Z,12.50
2018-12-13T19:17:05.469Z,12.07
2018-12-13T19:19:34.469Z,12.63
2018-12-13T19:22:04.740Z,10.73
2018-12-13T19:24:33.748Z,15.03
2018-12-13T19:27:02.588Z,13.00
2018-12-13T19:29:31.517Z,12.90
2018-12-13T19:32:00.353Z,12.17
2018-12-13T19:34:29.269Z,13.43
2018-12-13T19:36:58.169Z,14.40
2018-12-13T19:39:27.063Z,10.93
2018-12-13T19:41:55.941Z,11.70
2018-12-13T19:44:24.941Z,13.43
2018-12-13T19:46:53.777Z,15.23
2018-12-13T19:49:22.764Z,16.53
2018-12-13T19:51:51.642Z,14.17
2018-12-13T19:54:20.506Z,13.47
2018-12-13T19:56:49.366Z,12.20
2018-12-13T19:59:19.545Z,11.47
2018-12-13T20:01:48.386Z,12.17
2018-12-13T20:04:17.358Z,13.80
2018-12-13T20:06:46.193Z,12.70
2018-12-13T20:09:15.075Z,12.73
2018-12-13T20:11:44.084Z,11.93
2018-12-13T20:14:13.574Z,14.87
2018-12-13T20:16:42.621Z,12.30
2018-12-13T20:19:11.756Z,13.60
2018-12-13T20:21:40.637Z,14.03
2018-12-13T20:24:09.509Z,13.37
2018-12-13T20:26:38.445Z,13.50
2018-12-13T20:29:07.334Z,12.30
2018-12-13T20:31:36.211Z,12.90
2018-12-13T20:34:05.222Z,14.20
2018-12-13T20:36:34.115Z,12.33
2018-12-13T20:39:03.145Z,11.77
2018-12-13T20:41:32.093Z,11.07
2018-12-13T20:44:01.024Z,13.03
2018-12-13T20:46:29.883Z,14.23
2018-12-13T20:48:58.777Z,13.07
2018-12-13T20:51:27.744Z,12.80
2018-12-13T20:53:58.136Z,14.33
2018-12-13T20:56:26.964Z,11.70
2018-12-13T20:59:09.438Z,11.50
2018-12-13T21:01:38.833Z,13.40
2018-12-13T21:04:07.796Z,14.33
2018-12-13T21:06:36.667Z,12.60
2018-12-13T21:09:06.951Z,13.70
2018-12-13T21:11:35.881Z,16.10
2018-12-13T21:14:04.800Z,13.67
2018-12-13T21:16:33.765Z,14.13
2018-12-13T21:19:03.697Z,16.33
2018-12-13T21:21:32.700Z,15.50
2018-12-13T21:24:02.366Z,14.50
2018-12-13T21:26:31.198Z,12.30
2018-12-13T21:29:00.046Z,13.73
2018-12-13T21:31:28.929Z,14.33
2018-12-13T21:33:57.830Z,16.23
2018-12-13T21:36:27.228Z,17.87
2018-12-13T21:38:56.942Z,14.53
2018-12-13T21:41:25.926Z,17.20
2018-12-13T21:43:54.992Z,13.23
2018-12-13T21:46:24.231Z,14.07
2018-12-13T21:48:53.149Z,14.90
2018-12-13T21:51:25.376Z,16.57
2018-12-13T21:53:54.328Z,16.57
2018-12-13T21:56:23.166Z,18.03
2018-12-13T21:58:52.009Z,18.70
2018-12-13T22:01:21.013Z,15.60
2018-12-13T22:03:49.952Z,17.23
2018-12-13T22:06:19.046Z,17.33
2018-12-13T22:08:48.116Z,14.57
2018-12-13T22:11:19.903Z,17.43
2018-12-13T22:13:47.980Z,17.57
2018-12-13T22:16:16.841Z,18.40
2018-12-13T22:18:45.812Z,14.37
2018-12-13T22:21:14.627Z,12.97
2018-12-13T22:23:43.530Z,12.10
2018-12-13T22:26:12.429Z,15.43
2018-12-13T22:28:41.376Z,13.33
2018-12-13T22:31:10.292Z,13.97
2018-12-13T22:33:39.298Z,14.20
2018-12-13T22:36:08.437Z,12.00
2018-12-13T22:38:37.291Z,12.00
2018-12-13T22:41:06.198Z,12.37
2018-12-13T22:43:35.221Z,13.20
2018-12-13T22:46:04.408Z,13.30
2018-12-13T22:48:33.680Z,14.43
2018-12-13T22:51:02.565Z,13.37
2018-12-13T22:53:31.421Z,13.77
2018-12-13T22:56:00.313Z,13.97
2018-12-13T22:58:29.217Z,15.60
2018-12-13T23:00:58.222Z,13.50
2018-12-13T23:03:27.098Z,15.47
2018-12-13T23:05:56.109Z,15.23
2018-12-13T23:08:25.081Z,14.87
2018-12-13T23:10:54.253Z,16.20
2018-12-13T23:13:23.305Z,14.77
2018-12-13T23:15:52.544Z,12.13
2018-12-13T23:18:21.961Z,14.10
2018-12-13T23:20:50.866Z,15.40
2018-12-13T23:23:19.848Z,12.53
2018-12-13T23:25:49.884Z,15.00
2018-12-13T23:28:18.821Z,16.83
2018-12-13T23:30:47.641Z,15.90
2018-12-13T23:33:16.644Z,13.10
2018-12-13T23:35:45.663Z,11.43
2018-12-13T23:38:14.674Z,14.57
2018-12-13T23:40:43.509Z,13.90
2018-12-13T23:43:12.513Z,14.40
2018-12-13T23:45:41.429Z,13.20
2018-12-13T23:48:10.280Z,12.60
2018-12-13T23:50:39.722Z,13.47
2018-12-13T23:53:08.577Z,13.53
2018-12-13T23:55:37.456Z,15.77
2018-12-13T23:58:06.328Z,13.13
